createdAt,value
2022-12-22T00:01:30.578Z,100.00
2022-12-22T00:04:17.972Z,100.00
2022-12-22T00:07:03.369Z,100.00
2022-12-22T00:09:48.667Z,100.00
2022-12-22T00:12:37.681Z,100.00
2022-12-22T00:15:24.330Z,100.00
2022-12-22T00:18:10.157Z,100.00
2022-12-22T00:20:55.916Z,100.00
2022-12-22T00:23:41.280Z,100.00
2022-12-22T00:26:27.294Z,100.00
2022-12-22T00:29:13.054Z,100.00
2022-12-22T00:31:59.748Z,100.00
2022-12-22T00:34:46.423Z,100.00
2022-12-22T00:37:32.878Z,100.00
2022-12-22T00:40:19.933Z,100.00
2022-12-22T00:43:05.916Z,100.00
2022-12-22T00:45:51.462Z,100.00
2022-12-22T00:48:45.816Z,100.00
2022-12-22T00:51:32.159Z,100.00
2022-12-22T00:54:17.652Z,100.00
2022-12-22T00:57:03.333Z,100.00
2022-12-22T00:59:49.448Z,100.00
2022-12-22T01:02:36.303Z,100.00
2022-12-22T01:05:21.976Z,100.00
2022-12-22T01:08:07.960Z,100.00
2022-12-22T01:10:53.484Z,100.00
2022-12-22T01:13:39.345Z,100.00
2022-12-22T01:16:25.341Z,100.00
2022-12-22T01:19:11.884Z,100.00
2022-12-22T01:21:57.457Z,100.00
2022-12-22T01:24:48.130Z,100.00
2022-12-22T01:27:38.252Z,100.00
2022-12-22T01:30:24.436Z,100.00
2022-12-22T01:33:10.069Z,100.00
2022-12-22T01:35:55.909Z,100.00
2022-12-22T01:38:41.743Z,100.00
2022-12-22T01:41:33.266Z,100.00
2022-12-22T01:44:19.025Z,100.00
2022-12-22T01:47:05.768Z,100.00
2022-12-22T01:50:04.336Z,100.00
2022-12-22T01:52:53.556Z,100.00
2022-12-22T01:55:43.684Z,100.00
2022-12-22T01:58:42.588Z,100.00
2022-12-22T02:01:28.272Z,100.00
2022-12-22T02:04:14.341Z,100.00
2022-12-22T02:07:01.541Z,100.00
2022-12-22T02:10:02.534Z,100.00
2022-12-22T02:13:09.591Z,100.00
2022-12-22T02:16:05.775Z,100.00
2022-12-22T02:19:03.880Z,100.00
2022-12-22T02:22:01.973Z,100.00
2022-12-22T02:24:47.227Z,100.00
2022-12-22T02:27:34.200Z,100.00
2022-12-22T02:30:23.232Z,100.00
2022-12-22T02:33:10.164Z,100.00
2022-12-22T02:36:15.804Z,100.00
2022-12-22T02:39:10.482Z,100.00
2022-12-22T02:42:22.001Z,100.00
2022-12-22T02:45:32.331Z,100.00
2022-12-22T02:48:20.589Z,100.00
2022-12-22T02:51:13.348Z,100.00
2022-12-22T02:53:59.845Z,100.00
2022-12-22T02:56:45.825Z,100.00
2022-12-22T02:59:31.826Z,100.00
2022-12-22T03:02:17.340Z,100.00
2022-12-22T03:05:03.387Z,100.00
2022-12-22T03:07:48.817Z,100.00
2022-12-22T03:10:34.240Z,100.00
2022-12-22T03:13:19.855Z,100.00
2022-12-22T03:16:06.358Z,100.00
2022-12-22T03:18:52.054Z,100.00
2022-12-22T03:21:37.852Z,100.00
2022-12-22T03:24:23.842Z,100.00
2022-12-22T03:26:50.975Z,100.00
2022-12-22T03:29:17.890Z,100.00
2022-12-22T03:31:44.961Z,100.00
2022-12-22T03:34:11.930Z,100.00
2022-12-22T03:36:38.884Z,100.00
2022-12-22T03:39:05.956Z,100.00
2022-12-22T03:41:51.927Z,100.00
2022-12-22T03:44:37.881Z,100.00
2022-12-22T03:47:05.040Z,100.00
2022-12-22T03:49:32.326Z,100.00
2022-12-22T03:51:59.430Z,100.00
2022-12-22T03:54:26.610Z,100.00
2022-12-22T03:56:54.631Z,100.00
2022-12-22T03:59:22.035Z,100.00
2022-12-22T04:01:51.828Z,100.00
2022-12-22T04:04:21.199Z,100.00
2022-12-22T04:06:48.492Z,100.00
2022-12-22T04:09:15.375Z,100.00
2022-12-22T04:12:01.089Z,100.00
2022-12-22T04:14:33.727Z,100.00
2022-12-22T04:17:03.045Z,100.00
2022-12-22T04:19:30.629Z,100.00
2022-12-22T04:21:58.026Z,100.00
2022-12-22T04:24:25.732Z,100.00
2022-12-22T04:26:53.247Z,100.00
2022-12-22T04:29:20.430Z,100.00
2022-12-22T04:31:47.686Z,100.00
2022-12-22T04:34:14.807Z,100.00
2022-12-22T04:36:43.724Z,100.00
2022-12-22T04:39:10.615Z,100.00
2022-12-22T04:41:37.471Z,100.00
2022-12-22T04:44:04.354Z,100.00
2022-12-22T04:46:31.423Z,100.00
2022-12-22T04:49:00.464Z,100.00
2022-12-22T04:51:28.562Z,100.00
2022-12-22T04:53:55.627Z,100.00
2022-12-22T04:56:22.655Z,100.00
2022-12-22T04:58:49.684Z,100.00
2022-12-22T05:01:18.892Z,100.00
2022-12-22T05:03:54.433Z,100.00
2022-12-22T05:06:21.493Z,100.00
2022-12-22T05:08:48.499Z,100.00
2022-12-22T05:11:15.654Z,100.00
2022-12-22T05:13:42.593Z,100.00
2022-12-22T05:16:15.852Z,100.00
2022-12-22T05:18:46.649Z,100.00
2022-12-22T05:21:21.836Z,100.00
2022-12-22T05:23:50.511Z,100.00
2022-12-22T05:26:19.022Z,100.00
2022-12-22T05:28:49.155Z,100.00
2022-12-22T05:31:25.313Z,100.00
2022-12-22T05:33:52.830Z,100.00
2022-12-22T05:36:20.085Z,100.00
2022-12-22T05:38:47.191Z,100.00
2022-12-22T05:41:14.911Z,100.00
2022-12-22T05:43:42.104Z,100.00
2022-12-22T05:46:13.896Z,100.00
2022-12-22T05:48:41.323Z,100.00
2022-12-22T05:51:09.794Z,100.00
2022-12-22T05:53:38.722Z,100.00
2022-12-22T05:56:06.754Z,100.00
2022-12-22T05:58:35.268Z,100.00
2022-12-22T06:01:02.278Z,100.00
2022-12-22T06:03:30.747Z,100.00
2022-12-22T06:05:59.522Z,100.00
2022-12-22T06:08:28.171Z,100.00
2022-12-22T06:10:57.621Z,100.00
2022-12-22T06:13:25.936Z,100.00
2022-12-22T06:15:53.974Z,100.00
2022-12-22T06:18:21.861Z,100.00
2022-12-22T06:20:52.195Z,100.00
2022-12-22T06:23:19.488Z,100.00
2022-12-22T06:26:01.324Z,100.00
2022-12-22T06:28:29.394Z,100.00
2022-12-22T06:30:56.826Z,100.00
2022-12-22T06:33:24.443Z,100.00
2022-12-22T06:35:57.887Z,100.00
2022-12-22T06:38:28.095Z,100.00
2022-12-22T06:40:55.405Z,100.00
2022-12-22T06:43:23.024Z,100.00
2022-12-22T06:45:50.428Z,100.00
2022-12-22T06:48:18.026Z,100.00
2022-12-22T06:50:45.933Z,100.00
2022-12-22T06:53:14.751Z,100.00
2022-12-22T06:55:42.054Z,100.00
2022-12-22T06:58:10.036Z,100.00
2022-12-22T07:00:37.015Z,100.00
2022-12-22T07:03:04.640Z,100.00
2022-12-22T07:05:32.388Z,100.00
2022-12-22T07:08:08.081Z,100.00
2022-12-22T07:10:54.620Z,100.00
2022-12-22T07:13:21.879Z,100.00
2022-12-22T07:15:55.605Z,100.00
2022-12-22T07:18:27.106Z,100.00
2022-12-22T07:20:54.919Z,100.00
2022-12-22T07:23:22.015Z,100.00
2022-12-22T07:25:49.302Z,100.00
2022-12-22T07:28:20.679Z,100.00
2022-12-22T07:30:49.946Z,99.83
2022-12-22T07:33:17.951Z,98.91
2022-12-22T07:35:45.932Z,99.41
2022-12-22T07:38:13.861Z,99.20
2022-12-22T07:40:42.397Z,99.41
2022-12-22T07:43:10.455Z,98.92
2022-12-22T07:45:38.572Z,99.07
2022-12-22T07:48:26.524Z,98.93
2022-12-22T07:50:55.038Z,99.02
2022-12-22T07:53:22.562Z,99.30
2022-12-22T07:55:49.726Z,99.19
2022-12-22T07:58:17.826Z,99.02
2022-12-22T08:00:45.149Z,98.80
2022-12-22T08:03:12.323Z,98.67
2022-12-22T08:05:39.631Z,98.78
2022-12-22T08:08:07.728Z,99.17
2022-12-22T08:10:37.704Z,99.27
2022-12-22T08:13:05.052Z,99.68
2022-12-22T08:15:34.095Z,100.00
2022-12-22T08:18:01.903Z,99.44
2022-12-22T08:20:29.085Z,99.40
2022-12-22T08:22:57.249Z,99.73
2022-12-22T08:25:24.507Z,99.50
2022-12-22T08:27:55.490Z,98.23
2022-12-22T08:30:25.524Z,97.57
2022-12-22T08:32:53.581Z,97.75
2022-12-22T08:35:21.032Z,97.49
2022-12-22T08:37:49.902Z,96.98
2022-12-22T08:40:21.905Z,96.32
2022-12-22T08:42:51.279Z,97.06
2022-12-22T08:45:18.578Z,97.06
2022-12-22T08:47:45.573Z,96.83
2022-12-22T08:50:14.355Z,95.81
2022-12-22T08:52:41.725Z,95.59
2022-12-22T08:55:10.040Z,94.99
2022-12-22T08:57:37.775Z,94.86
2022-12-22T09:00:06.917Z,94.88
2022-12-22T09:02:34.485Z,94.68
2022-12-22T09:09:11.469Z,95.13
2022-12-22T09:11:40.125Z,94.88
2022-12-22T09:14:08.624Z,95.10
2022-12-22T09:16:36.768Z,94.20
2022-12-22T09:19:04.779Z,93.37
2022-12-22T09:21:31.872Z,94.18
2022-12-22T09:23:59.534Z,94.13
2022-12-22T09:26:28.761Z,93.94
2022-12-22T09:28:56.054Z,93.89
2022-12-22T09:31:24.696Z,93.37
2022-12-22T09:33:54.001Z,93.07
2022-12-22T09:36:24.916Z,92.71
2022-12-22T09:38:52.064Z,92.23
2022-12-22T09:41:34.820Z,91.17
2022-12-22T09:44:06.878Z,90.98
2022-12-22T09:46:37.295Z,91.39
2022-12-22T09:49:07.259Z,91.16
2022-12-22T09:51:40.563Z,91.10
2022-12-22T09:54:11.520Z,90.52
2022-12-22T09:56:38.600Z,90.33
2022-12-22T09:59:27.637Z,89.19
2022-12-22T10:02:11.090Z,88.89
2022-12-22T10:05:07.118Z,88.50
2022-12-22T10:07:36.020Z,87.16
2022-12-22T10:10:14.367Z,86.10
2022-12-22T10:12:42.625Z,86.06
2022-12-22T10:15:20.036Z,85.64
2022-12-22T10:17:51.817Z,85.33
2022-12-22T10:20:21.678Z,84.63
2022-12-22T10:22:55.843Z,84.09
2022-12-22T10:26:00.409Z,83.67
2022-12-22T10:28:33.646Z,83.78
2022-12-22T10:31:15.100Z,83.61
2022-12-22T10:33:47.052Z,83.28
2022-12-22T10:36:37.233Z,82.83
2022-12-22T10:39:09.921Z,82.96
2022-12-22T10:41:42.272Z,82.34
2022-12-22T10:44:21.523Z,82.35
2022-12-22T10:46:54.543Z,82.46
2022-12-22T10:52:13.778Z,80.75
2022-12-22T10:54:44.791Z,80.53
2022-12-22T10:57:14.978Z,80.72
2022-12-22T10:59:54.172Z,79.86
2022-12-22T11:02:21.397Z,79.81
2022-12-22T11:04:49.829Z,78.53
2022-12-22T11:07:17.504Z,77.65
2022-12-22T11:09:44.526Z,76.40
2022-12-22T11:12:16.998Z,75.37
2022-12-22T11:15:20.197Z,74.04
2022-12-22T11:18:12.610Z,72.59
2022-12-22T11:21:07.463Z,71.78
2022-12-22T11:23:56.225Z,70.29
2022-12-22T11:26:40.541Z,69.01
2022-12-22T11:29:30.646Z,68.85
2022-12-22T11:32:15.861Z,69.25
2022-12-22T11:35:14.220Z,66.40
2022-12-22T11:38:00.955Z,65.66
2022-12-22T11:40:47.215Z,65.11
2022-12-22T11:43:35.356Z,63.13
2022-12-22T11:46:14.342Z,61.30
2022-12-22T11:48:53.525Z,60.55
2022-12-22T11:51:42.050Z,60.45
2022-12-22T11:54:31.960Z,60.01
2022-12-22T11:57:11.373Z,59.17
2022-12-22T11:59:47.391Z,58.37
2022-12-22T12:02:56.232Z,58.01
2022-12-22T12:05:34.569Z,56.93
2022-12-22T12:08:29.652Z,56.88
2022-12-22T12:11:18.699Z,56.85
2022-12-22T12:14:36.113Z,56.97
2022-12-22T12:17:15.172Z,57.53
2022-12-22T12:20:18.847Z,57.29
2022-12-22T12:23:17.426Z,58.01
2022-12-22T12:25:57.021Z,58.42
2022-12-22T12:28:23.858Z,58.14
2022-12-22T12:30:54.986Z,57.46
2022-12-22T12:33:35.580Z,54.96
2022-12-22T12:36:24.710Z,53.04
2022-12-22T12:39:08.768Z,50.21
2022-12-22T12:41:56.929Z,50.34
2022-12-22T12:44:28.537Z,51.19
2022-12-22T12:47:28.407Z,52.16
2022-12-22T12:50:34.027Z,48.74
2022-12-22T12:53:05.627Z,46.32
2022-12-22T12:55:52.016Z,46.50
2022-12-22T12:58:40.048Z,41.68
2022-12-22T13:01:13.284Z,42.85
2022-12-22T13:04:03.279Z,44.56
2022-12-22T13:06:49.128Z,46.12
2022-12-22T13:12:40.287Z,50.11
2022-12-22T13:15:26.608Z,51.62
2022-12-22T13:17:53.852Z,53.30
2022-12-22T13:20:35.500Z,54.03
2022-12-22T13:23:10.531Z,55.36
2022-12-22T13:25:42.601Z,56.43
2022-12-22T13:28:16.797Z,57.15
2022-12-22T13:30:49.450Z,58.20
2022-12-22T13:33:24.487Z,58.66
2022-12-22T13:35:58.239Z,59.33
2022-12-22T13:38:37.432Z,60.04
2022-12-22T13:41:22.952Z,60.37
2022-12-22T13:43:57.397Z,60.77
2022-12-22T13:46:27.162Z,60.97
2022-12-22T13:48:57.506Z,61.44
2022-12-22T13:51:28.906Z,61.53
2022-12-22T13:54:10.992Z,61.78
2022-12-22T13:56:42.685Z,62.02
2022-12-22T13:59:39.611Z,62.46
2022-12-22T14:02:09.401Z,62.96
2022-12-22T14:04:38.030Z,63.57
2022-12-22T14:07:17.322Z,63.87
2022-12-22T14:09:56.558Z,64.02
2022-12-22T14:12:30.366Z,64.60
2022-12-22T14:15:01.539Z,65.09
2022-12-22T14:17:30.935Z,65.35
2022-12-22T14:20:00.873Z,66.01
2022-12-22T14:22:33.125Z,66.58
2022-12-22T14:25:09.546Z,67.06
2022-12-22T14:27:49.435Z,67.66
2022-12-22T14:30:22.357Z,68.67
2022-12-22T14:32:55.480Z,69.67
2022-12-22T14:35:26.868Z,69.95
2022-12-22T14:38:16.987Z,70.62
2022-12-22T14:40:45.311Z,71.19
2022-12-22T14:43:18.263Z,71.65
2022-12-22T14:45:47.279Z,72.61
2022-12-22T14:48:39.997Z,73.14
2022-12-22T14:51:07.680Z,74.20
2022-12-22T14:53:37.290Z,75.16
2022-12-22T14:56:04.286Z,75.71
2022-12-22T14:58:35.421Z,76.26
2022-12-22T15:01:17.558Z,76.39
2022-12-22T15:03:55.128Z,77.42
2022-12-22T15:06:28.218Z,78.04
2022-12-22T15:09:07.276Z,78.73
2022-12-22T15:11:36.183Z,79.49
2022-12-22T15:14:04.030Z,80.04
2022-12-22T15:16:31.650Z,80.35
2022-12-22T15:18:58.597Z,80.92
2022-12-22T15:21:28.308Z,81.55
2022-12-22T15:23:55.270Z,81.92
2022-12-22T15:26:22.159Z,82.70
2022-12-22T15:28:49.089Z,82.57
2022-12-22T15:31:17.379Z,82.77
2022-12-22T15:33:45.795Z,83.11
2022-12-22T15:36:14.824Z,83.36
2022-12-22T15:38:52.148Z,83.66
2022-12-22T15:41:19.183Z,83.67
2022-12-22T15:44:01.535Z,84.02
2022-12-22T15:46:34.092Z,84.45
2022-12-22T15:49:01.137Z,85.02
2022-12-22T15:51:30.658Z,84.92
2022-12-22T15:54:12.131Z,85.44
2022-12-22T15:56:39.009Z,85.70
2022-12-22T15:59:06.153Z,85.77
2022-12-22T16:01:33.193Z,86.38
2022-12-22T16:04:00.453Z,86.40
2022-12-22T16:06:27.475Z,87.22
2022-12-22T16:08:54.712Z,87.13
2022-12-22T16:11:21.830Z,87.59
2022-12-22T16:13:50.501Z,87.91
2022-12-22T16:16:17.771Z,88.40
2022-12-22T16:18:44.856Z,88.62
2022-12-22T16:21:17.033Z,88.99
2022-12-22T16:23:46.864Z,88.98
2022-12-22T16:26:20.450Z,88.99
2022-12-22T16:28:48.140Z,90.08
2022-12-22T16:31:21.359Z,90.91
2022-12-22T16:33:48.428Z,91.19
2022-12-22T16:36:15.898Z,91.52
2022-12-22T16:38:45.842Z,92.18
2022-12-22T16:41:24.355Z,92.12
2022-12-22T16:46:39.289Z,92.85
2022-12-22T16:49:09.253Z,93.04
2022-12-22T16:51:40.319Z,93.64
2022-12-22T16:54:07.332Z,94.15
2022-12-22T16:56:35.019Z,94.49
2022-12-22T16:59:04.664Z,94.56
2022-12-22T17:01:35.175Z,94.94
2022-12-22T17:04:08.045Z,95.13
2022-12-22T17:06:35.194Z,95.51
2022-12-22T17:09:04.705Z,95.44
2022-12-22T17:11:34.681Z,95.54
2022-12-22T17:14:38.708Z,95.56
2022-12-22T17:17:05.918Z,95.50
2022-12-22T17:19:32.892Z,95.56
2022-12-22T17:22:03.763Z,96.33
2022-12-22T17:24:30.645Z,97.17
2022-12-22T17:27:03.438Z,97.64
2022-12-22T17:29:30.509Z,98.00
2022-12-22T17:32:04.122Z,98.27
2022-12-22T17:34:42.785Z,98.41
2022-12-22T17:37:22.349Z,98.50
2022-12-22T17:39:59.150Z,99.08
2022-12-22T17:42:26.782Z,99.11
2022-12-22T17:44:53.945Z,98.96
2022-12-22T17:47:29.085Z,99.21
2022-12-22T17:49:58.735Z,99.20
2022-12-22T17:52:28.226Z,98.97
2022-12-22T17:54:55.323Z,98.98
2022-12-22T17:57:32.408Z,98.99
2022-12-22T17:59:59.498Z,99.27
2022-12-22T18:02:31.196Z,99.28
2022-12-22T18:04:58.924Z,99.26
2022-12-22T18:07:26.027Z,99.41
2022-12-22T18:09:59.087Z,99.74
2022-12-22T18:12:26.172Z,100.00
2022-12-22T18:14:53.165Z,100.00
2022-12-22T18:17:26.229Z,100.00
2022-12-22T18:19:55.958Z,100.00
2022-12-22T18:22:25.839Z,100.00
2022-12-22T18:24:54.602Z,100.00
2022-12-22T18:27:22.904Z,100.00
2022-12-22T18:29:49.867Z,100.00
2022-12-22T18:32:26.308Z,100.00
2022-12-22T18:34:54.361Z,100.00
2022-12-22T18:37:21.451Z,100.00
2022-12-22T18:39:48.315Z,100.00
2022-12-22T18:42:23.596Z,100.00
2022-12-22T18:44:58.189Z,100.00
2022-12-22T18:47:25.216Z,100.00
2022-12-22T18:49:52.343Z,100.00
2022-12-22T18:52:23.332Z,100.00
2022-12-22T18:54:51.096Z,100.00
2022-12-22T18:57:22.799Z,100.00
2022-12-22T18:59:49.813Z,100.00
2022-12-22T19:02:21.055Z,100.00
2022-12-22T19:04:55.222Z,100.00
2022-12-22T19:07:25.115Z,100.00
2022-12-22T19:09:52.345Z,100.00
2022-12-22T19:12:25.322Z,100.00
2022-12-22T19:14:57.399Z,100.00
2022-12-22T19:17:27.926Z,100.00
2022-12-22T19:19:55.655Z,100.00
2022-12-22T19:22:22.515Z,100.00
2022-12-22T19:24:49.371Z,100.00
2022-12-22T19:27:16.176Z,100.00
2022-12-22T19:29:43.069Z,100.00
2022-12-22T19:32:26.295Z,100.00
2022-12-22T19:34:53.256Z,100.00
2022-12-22T19:37:20.317Z,100.00
2022-12-22T19:39:47.585Z,100.00
2022-12-22T19:42:19.681Z,100.00
2022-12-22T19:44:47.249Z,100.00
2022-12-22T19:47:24.486Z,100.00
2022-12-22T19:49:51.320Z,100.00
2022-12-22T19:52:18.270Z,100.00
2022-12-22T19:54:45.196Z,100.00
2022-12-22T19:57:19.628Z,100.00
2022-12-22T19:59:49.813Z,100.00
2022-12-22T20:02:32.002Z,100.00
2022-12-22T20:05:00.869Z,100.00
2022-12-22T20:07:29.874Z,100.00
2022-12-22T20:09:57.115Z,100.00
2022-12-22T20:12:36.154Z,100.00
2022-12-22T20:15:13.585Z,100.00
2022-12-22T20:17:40.473Z,100.00
2022-12-22T20:20:13.365Z,100.00
2022-12-22T20:22:48.388Z,100.00
2022-12-22T20:25:26.753Z,100.00
2022-12-22T20:27:55.421Z,100.00
2022-12-22T20:30:28.903Z,100.00
2022-12-22T20:32:56.032Z,100.00
2022-12-22T20:35:24.292Z,100.00
2022-12-22T20:37:51.408Z,100.00
2022-12-22T20:40:26.366Z,100.00
2022-12-22T20:42:53.713Z,100.00
2022-12-22T20:45:23.910Z,100.00
2022-12-22T20:47:52.112Z,100.00
2022-12-22T20:50:37.044Z,100.00
2022-12-22T20:53:05.441Z,100.00
2022-12-22T20:55:32.487Z,100.00
2022-12-22T20:58:01.166Z,100.00
2022-12-22T21:00:29.145Z,100.00
2022-12-22T21:02:56.220Z,100.00
2022-12-22T21:05:23.237Z,100.00
2022-12-22T21:07:50.261Z,100.00
2022-12-22T21:10:26.497Z,100.00
2022-12-22T21:12:53.461Z,100.00
2022-12-22T21:15:28.265Z,100.00
2022-12-22T21:17:58.672Z,100.00
2022-12-22T21:20:28.403Z,100.00
2022-12-22T21:22:55.511Z,100.00
2022-12-22T21:25:28.655Z,100.00
2022-12-22T21:27:56.481Z,100.00
2022-12-22T21:30:28.119Z,100.00
2022-12-22T21:32:55.930Z,100.00
2022-12-22T21:35:31.269Z,100.00
2022-12-22T21:37:58.816Z,100.00
2022-12-22T21:40:28.233Z,100.00
2022-12-22T21:42:56.746Z,100.00
2022-12-22T21:45:26.745Z,100.00
2022-12-22T21:47:53.656Z,100.00
2022-12-22T21:50:33.076Z,100.00
2022-12-22T21:53:00.408Z,100.00
2022-12-22T21:55:32.769Z,100.00
2022-12-22T21:58:03.675Z,100.00
2022-12-22T22:00:45.990Z,100.00
2022-12-22T22:03:14.808Z,100.00
2022-12-22T22:05:42.349Z,100.00
2022-12-22T22:08:13.387Z,100.00
2022-12-22T22:10:41.383Z,100.00
2022-12-22T22:13:09.037Z,100.00
2022-12-22T22:15:37.147Z,100.00
2022-12-22T22:18:07.247Z,100.00
2022-12-22T22:20:35.050Z,100.00
2022-12-22T22:23:02.206Z,100.00
2022-12-22T22:25:29.086Z,100.00
2022-12-22T22:28:00.014Z,100.00
2022-12-22T22:30:27.092Z,100.00
2022-12-22T22:32:55.834Z,100.00
2022-12-22T22:35:23.866Z,100.00
2022-12-22T22:37:58.117Z,100.00
2022-12-22T22:40:25.381Z,100.00
2022-12-22T22:42:57.313Z,100.00
2022-12-22T22:45:27.841Z,100.00
2022-12-22T22:47:55.908Z,100.00
2022-12-22T22:50:23.045Z,100.00
2022-12-22T22:52:50.341Z,100.00
2022-12-22T22:55:17.345Z,100.00
2022-12-22T22:57:44.220Z,100.00
2022-12-22T23:00:13.792Z,100.00
2022-12-22T23:02:41.044Z,100.00
2022-12-22T23:05:09.105Z,100.00
2022-12-22T23:07:36.197Z,100.00
2022-12-22T23:10:05.397Z,100.00
2022-12-22T23:12:32.638Z,100.00
2022-12-22T23:15:02.387Z,100.00
2022-12-22T23:17:29.693Z,100.00
2022-12-22T23:19:56.680Z,100.00
2022-12-22T23:22:28.471Z,100.00
2022-12-22T23:24:55.338Z,100.00
2022-12-22T23:27:25.187Z,100.00
2022-12-22T23:29:52.036Z,100.00
2022-12-22T23:32:25.776Z,100.00
2022-12-22T23:34:52.739Z,100.00
2022-12-22T23:37:19.996Z,100.00
2022-12-22T23:39:47.110Z,100.00
2022-12-22T23:42:13.885Z,100.00
2022-12-22T23:44:43.952Z,100.00
2022-12-22T23:47:10.860Z,100.00
2022-12-22T23:49:37.711Z,100.00
2022-12-22T23:52:04.711Z,100.00
2022-12-22T23:54:31.623Z,100.00
2022-12-22T23:56:58.461Z,100.00
2022-12-22T23:59:26.259Z,100.00
